sensor_id;sensor_type;location;lat;lon;timestamp;P1;durP1;ratioP1;P2;durP2;ratioP2
830;SDS011;397;50.564;7.272;2023-04-24T00:02:02;1.63;;;0.50;;
830;SDS011;397;50.564;7.272;2023-04-24T00:04:29;1.90;;;0.60;;
830;SDS011;397;50.564;7.272;2023-04-24T00:06:57;3.00;;;0.50;;
830;SDS011;397;50.564;7.272;2023-04-24T00:09:25;2.80;;;0.80;;
830;SDS011;397;50.564;7.272;2023-04-24T00:11:53;1.60;;;0.60;;
830;SDS011;397;50.564;7.272;2023-04-24T00:14:21;2.13;;;0.70;;
830;SDS011;397;50.564;7.272;2023-04-24T00:16:49;2.47;;;0.83;;
830;SDS011;397;50.564;7.272;2023-04-24T00:19:17;2.57;;;0.90;;
830;SDS011;397;50.564;7.272;2023-04-24T00:21:46;2.43;;;0.70;;
830;SDS011;397;50.564;7.272;2023-04-24T00:24:16;1.80;;;0.70;;
830;SDS011;397;50.564;7.272;2023-04-24T00:26:44;1.77;;;0.70;;
830;SDS011;397;50.564;7.272;2023-04-24T00:29:11;4.97;;;1.30;;
830;SDS011;397;50.564;7.272;2023-04-24T00:31:39;2.00;;;0.90;;
830;SDS011;397;50.564;7.272;2023-04-24T00:34:06;4.50;;;0.60;;
830;SDS011;397;50.564;7.272;2023-04-24T00:36:34;1.83;;;0.50;;
830;SDS011;397;50.564;7.272;2023-04-24T00:39:02;3.50;;;0.90;;
830;SDS011;397;50.564;7.272;2023-04-24T00:41:29;1.73;;;0.70;;
830;SDS011;397;50.564;7.272;2023-04-24T00:43:57;3.50;;;0.90;;
830;SDS011;397;50.564;7.272;2023-04-24T00:46:25;1.57;;;0.50;;
830;SDS011;397;50.564;7.272;2023-04-24T00:48:52;1.60;;;0.63;;
830;SDS011;397;50.564;7.272;2023-04-24T00:51:20;1.80;;;0.70;;
830;SDS011;397;50.564;7.272;2023-04-24T00:53:49;1.77;;;0.60;;
830;SDS011;397;50.564;7.272;2023-04-24T00:56:18;3.60;;;0.60;;
830;SDS011;397;50.564;7.272;2023-04-24T00:58:46;1.80;;;0.80;;
830;SDS011;397;50.564;7.272;2023-04-24T01:01:14;1.70;;;0.50;;
830;SDS011;397;50.564;7.272;2023-04-24T01:03:42;2.20;;;0.70;;
830;SDS011;397;50.564;7.272;2023-04-24T01:06:10;1.97;;;0.57;;
830;SDS011;397;50.564;7.272;2023-04-24T01:08:38;1.70;;;0.67;;
830;SDS011;397;50.564;7.272;2023-04-24T01:11:07;2.00;;;0.50;;
830;SDS011;397;50.564;7.272;2023-04-24T01:13:35;1.60;;;0.50;;
830;SDS011;397;50.564;7.272;2023-04-24T01:16:02;1.87;;;0.77;;
830;SDS011;397;50.564;7.272;2023-04-24T01:18:30;2.83;;;0.67;;
830;SDS011;397;50.564;7.272;2023-04-24T01:20:58;2.77;;;0.60;;
830;SDS011;397;50.564;7.272;2023-04-24T01:23:27;1.60;;;0.60;;
830;SDS011;397;50.564;7.272;2023-04-24T01:25:55;2.10;;;0.80;;
830;SDS011;397;50.564;7.272;2023-04-24T01:28:22;2.43;;;0.60;;
830;SDS011;397;50.564;7.272;2023-04-24T01:30:50;1.60;;;0.60;;
830;SDS011;397;50.564;7.272;2023-04-24T01:33:18;1.70;;;0.60;;
830;SDS011;397;50.564;7.272;2023-04-24T01:35:48;1.80;;;0.70;;
830;SDS011;397;50.564;7.272;2023-04-24T01:38:16;1.80;;;0.70;;
830;SDS011;397;50.564;7.272;2023-04-24T01:40:43;5.10;;;1.00;;
830;SDS011;397;50.564;7.272;2023-04-24T01:43:11;3.00;;;0.77;;
830;SDS011;397;50.564;7.272;2023-04-24T01:45:39;1.70;;;0.63;;
830;SDS011;397;50.564;7.272;2023-04-24T01:48:06;3.50;;;1.10;;
830;SDS011;397;50.564;7.272;2023-04-24T01:50:34;2.10;;;1.00;;
830;SDS011;397;50.564;7.272;2023-04-24T01:53:02;2.20;;;0.90;;
830;SDS011;397;50.564;7.272;2023-04-24T01:55:29;2.20;;;0.90;;
830;SDS011;397;50.564;7.272;2023-04-24T01:57:57;1.90;;;1.10;;
830;SDS011;397;50.564;7.272;2023-04-24T02:00:26;1.87;;;1.20;;
830;SDS011;397;50.564;7.272;2023-04-24T02:02:53;2.10;;;1.27;;
830;SDS011;397;50.564;7.272;2023-04-24T02:05:21;2.60;;;1.50;;
830;SDS011;397;50.564;7.272;2023-04-24T02:07:49;2.00;;;1.23;;
830;SDS011;397;50.564;7.272;2023-04-24T02:10:16;3.00;;;1.43;;
830;SDS011;397;50.564;7.272;2023-04-24T02:12:43;3.53;;;1.87;;
830;SDS011;397;50.564;7.272;2023-04-24T02:15:11;2.67;;;1.60;;
830;SDS011;397;50.564;7.272;2023-04-24T02:17:38;2.93;;;1.70;;
830;SDS011;397;50.564;7.272;2023-04-24T02:20:06;5.43;;;1.97;;
830;SDS011;397;50.564;7.272;2023-04-24T02:22:34;3.67;;;2.40;;
830;SDS011;397;50.564;7.272;2023-04-24T02:25:01;3.77;;;2.90;;
830;SDS011;397;50.564;7.272;2023-04-24T02:27:29;2.37;;;1.93;;
830;SDS011;397;50.564;7.272;2023-04-24T02:29:57;3.23;;;2.80;;
830;SDS011;397;50.564;7.272;2023-04-24T02:32:24;2.90;;;2.00;;
830;SDS011;397;50.564;7.272;2023-04-24T02:34:52;4.20;;;2.03;;
830;SDS011;397;50.564;7.272;2023-04-24T02:37:19;2.93;;;2.63;;
830;SDS011;397;50.564;7.272;2023-04-24T02:39:47;2.50;;;1.90;;
830;SDS011;397;50.564;7.272;2023-04-24T02:42:14;2.60;;;1.80;;
830;SDS011;397;50.564;7.272;2023-04-24T02:44:42;2.37;;;1.70;;
830;SDS011;397;50.564;7.272;2023-04-24T02:47:09;3.27;;;1.53;;
830;SDS011;397;50.564;7.272;2023-04-24T02:49:37;3.83;;;2.57;;
830;SDS011;397;50.564;7.272;2023-04-24T02:52:04;6.13;;;2.67;;
830;SDS011;397;50.564;7.272;2023-04-24T02:54:32;3.40;;;2.63;;
830;SDS011;397;50.564;7.272;2023-04-24T02:56:59;4.10;;;3.37;;
830;SDS011;397;50.564;7.272;2023-04-24T02:59:27;4.10;;;2.87;;
830;SDS011;397;50.564;7.272;2023-04-24T03:01:55;3.33;;;2.63;;
830;SDS011;397;50.564;7.272;2023-04-24T03:04:22;3.90;;;2.90;;
830;SDS011;397;50.564;7.272;2023-04-24T03:06:50;4.83;;;3.93;;
830;SDS011;397;50.564;7.272;2023-04-24T03:09:19;5.67;;;3.63;;
830;SDS011;397;50.564;7.272;2023-04-24T03:11:47;4.97;;;2.93;;
830;SDS011;397;50.564;7.272;2023-04-24T03:14:15;4.97;;;3.87;;
830;SDS011;397;50.564;7.272;2023-04-24T03:16:43;4.30;;;2.73;;
830;SDS011;397;50.564;7.272;2023-04-24T03:19:11;4.17;;;3.30;;
830;SDS011;397;50.564;7.272;2023-04-24T03:21:38;4.20;;;3.30;;
830;SDS011;397;50.564;7.272;2023-04-24T03:24:09;5.80;;;3.73;;
830;SDS011;397;50.564;7.272;2023-04-24T03:26:37;5.17;;;4.00;;
830;SDS011;397;50.564;7.272;2023-04-24T03:29:04;4.70;;;3.33;;
830;SDS011;397;50.564;7.272;2023-04-24T03:31:32;3.70;;;3.33;;
830;SDS011;397;50.564;7.272;2023-04-24T03:33:59;4.30;;;3.10;;
830;SDS011;397;50.564;7.272;2023-04-24T03:36:27;7.67;;;3.80;;
830;SDS011;397;50.564;7.272;2023-04-24T03:38:54;3.83;;;3.20;;
830;SDS011;397;50.564;7.272;2023-04-24T03:41:22;4.57;;;3.93;;
830;SDS011;397;50.564;7.272;2023-04-24T03:43:49;5.47;;;4.30;;
830;SDS011;397;50.564;7.272;2023-04-24T03:46:17;4.17;;;3.77;;
830;SDS011;397;50.564;7.272;2023-04-24T03:48:44;4.30;;;3.80;;
830;SDS011;397;50.564;7.272;2023-04-24T03:51:12;5.40;;;4.00;;
830;SDS011;397;50.564;7.272;2023-04-24T03:53:39;5.77;;;5.17;;
830;SDS011;397;50.564;7.272;2023-04-24T03:56:07;7.37;;;4.07;;
830;SDS011;397;50.564;7.272;2023-04-24T03:58:35;4.73;;;4.23;;
830;SDS011;397;50.564;7.272;2023-04-24T04:01:02;6.97;;;5.00;;
830;SDS011;397;50.564;7.272;2023-04-24T04:03:30;5.50;;;4.70;;
830;SDS011;397;50.564;7.272;2023-04-24T04:05:57;4.80;;;4.10;;
830;SDS011;397;50.564;7.272;2023-04-24T04:08:24;5.70;;;4.80;;
830;SDS011;397;50.564;7.272;2023-04-24T04:10:52;6.63;;;5.03;;
830;SDS011;397;50.564;7.272;2023-04-24T04:13:20;5.50;;;5.00;;
830;SDS011;397;50.564;7.272;2023-04-24T04:15:48;6.50;;;4.60;;
830;SDS011;397;50.564;7.272;2023-04-24T04:18:15;5.00;;;4.03;;
830;SDS011;397;50.564;7.272;2023-04-24T04:20:43;7.37;;;5.23;;
830;SDS011;397;50.564;7.272;2023-04-24T04:23:10;5.90;;;4.60;;
830;SDS011;397;50.564;7.272;2023-04-24T04:25:38;5.87;;;5.27;;
830;SDS011;397;50.564;7.272;2023-04-24T04:28:05;6.70;;;5.40;;
830;SDS011;397;50.564;7.272;2023-04-24T04:30:33;5.00;;;4.50;;
830;SDS011;397;50.564;7.272;2023-04-24T04:33:00;5.97;;;4.40;;
830;SDS011;397;50.564;7.272;2023-04-24T04:35:28;10.10;;;4.40;;
830;SDS011;397;50.564;7.272;2023-04-24T04:37:56;7.63;;;4.20;;
830;SDS011;397;50.564;7.272;2023-04-24T04:40:26;5.23;;;4.03;;
830;SDS011;397;50.564;7.272;2023-04-24T04:42:54;7.23;;;4.13;;
830;SDS011;397;50.564;7.272;2023-04-24T04:45:21;5.63;;;4.20;;
830;SDS011;397;50.564;7.272;2023-04-24T04:47:50;5.40;;;3.87;;
830;SDS011;397;50.564;7.272;2023-04-24T04:50:17;6.70;;;4.27;;
830;SDS011;397;50.564;7.272;2023-04-24T04:52:45;6.37;;;3.30;;
830;SDS011;397;50.564;7.272;2023-04-24T04:55:12;3.97;;;3.30;;
830;SDS011;397;50.564;7.272;2023-04-24T04:57:40;6.30;;;3.90;;
830;SDS011;397;50.564;7.272;2023-04-24T05:00:08;3.60;;;3.03;;
830;SDS011;397;50.564;7.272;2023-04-24T05:02:37;4.30;;;3.60;;
830;SDS011;397;50.564;7.272;2023-04-24T05:05:05;5.30;;;4.43;;
830;SDS011;397;50.564;7.272;2023-04-24T05:07:33;5.60;;;3.93;;
830;SDS011;397;50.564;7.272;2023-04-24T05:10:01;4.23;;;3.60;;
830;SDS011;397;50.564;7.272;2023-04-24T05:12:28;4.23;;;3.50;;
830;SDS011;397;50.564;7.272;2023-04-24T05:14:56;5.77;;;3.57;;
830;SDS011;397;50.564;7.272;2023-04-24T05:17:23;5.77;;;3.87;;
830;SDS011;397;50.564;7.272;2023-04-24T05:19:51;5.03;;;3.50;;
830;SDS011;397;50.564;7.272;2023-04-24T05:22:19;4.67;;;3.80;;
830;SDS011;397;50.564;7.272;2023-04-24T05:24:47;6.37;;;3.93;;
830;SDS011;397;50.564;7.272;2023-04-24T05:27:14;3.93;;;3.53;;
830;SDS011;397;50.564;7.272;2023-04-24T05:29:42;3.83;;;3.20;;
830;SDS011;397;50.564;7.272;2023-04-24T05:32:09;4.83;;;3.23;;
830;SDS011;397;50.564;7.272;2023-04-24T05:34:37;3.93;;;3.53;;
830;SDS011;397;50.564;7.272;2023-04-24T05:37:04;4.90;;;4.10;;
830;SDS011;397;50.564;7.272;2023-04-24T05:39:34;7.10;;;4.80;;
830;SDS011;397;50.564;7.272;2023-04-24T05:42:01;5.00;;;4.33;;
830;SDS011;397;50.564;7.272;2023-04-24T05:44:30;4.30;;;3.70;;
830;SDS011;397;50.564;7.272;2023-04-24T05:46:58;7.63;;;4.57;;
830;SDS011;397;50.564;7.272;2023-04-24T05:49:26;4.53;;;3.77;;
830;SDS011;397;50.564;7.272;2023-04-24T05:51:53;9.57;;;4.00;;
830;SDS011;397;50.564;7.272;2023-04-24T05:54:21;5.07;;;4.47;;
830;SDS011;397;50.564;7.272;2023-04-24T05:56:49;7.80;;;4.20;;
830;SDS011;397;50.564;7.272;2023-04-24T05:59:16;6.23;;;4.10;;
830;SDS011;397;50.564;7.272;2023-04-24T06:01:44;6.00;;;4.30;;
830;SDS011;397;50.564;7.272;2023-04-24T06:04:12;5.53;;;4.00;;
830;SDS011;397;50.564;7.272;2023-04-24T06:06:40;6.03;;;4.67;;
830;SDS011;397;50.564;7.272;2023-04-24T06:09:07;7.90;;;5.00;;
830;SDS011;397;50.564;7.272;2023-04-24T06:11:35;5.83;;;4.93;;
830;SDS011;397;50.564;7.272;2023-04-24T06:14:02;5.60;;;5.10;;
830;SDS011;397;50.564;7.272;2023-04-24T06:16:30;6.57;;;4.80;;
830;SDS011;397;50.564;7.272;2023-04-24T06:18:57;6.40;;;4.87;;
830;SDS011;397;50.564;7.272;2023-04-24T06:21:25;5.80;;;5.20;;
830;SDS011;397;50.564;7.272;2023-04-24T06:23:53;5.80;;;4.57;;
830;SDS011;397;50.564;7.272;2023-04-24T06:26:21;7.00;;;6.30;;
830;SDS011;397;50.564;7.272;2023-04-24T06:28:50;5.70;;;4.90;;
830;SDS011;397;50.564;7.272;2023-04-24T06:31:19;7.80;;;5.80;;
830;SDS011;397;50.564;7.272;2023-04-24T06:33:48;7.07;;;5.70;;
830;SDS011;397;50.564;7.272;2023-04-24T06:36:15;6.20;;;5.43;;
830;SDS011;397;50.564;7.272;2023-04-24T06:38:43;6.80;;;5.80;;
830;SDS011;397;50.564;7.272;2023-04-24T06:41:11;5.53;;;3.83;;
830;SDS011;397;50.564;7.272;2023-04-24T06:43:39;5.97;;;4.70;;
830;SDS011;397;50.564;7.272;2023-04-24T06:46:07;6.30;;;5.40;;
830;SDS011;397;50.564;7.272;2023-04-24T06:48:34;6.73;;;4.97;;
830;SDS011;397;50.564;7.272;2023-04-24T06:51:02;7.00;;;5.23;;
830;SDS011;397;50.564;7.272;2023-04-24T06:53:29;6.53;;;5.50;;
830;SDS011;397;50.564;7.272;2023-04-24T06:55:57;6.00;;;5.30;;
830;SDS011;397;50.564;7.272;2023-04-24T06:58:24;6.73;;;5.23;;
830;SDS011;397;50.564;7.272;2023-04-24T07:00:52;5.67;;;5.10;;
830;SDS011;397;50.564;7.272;2023-04-24T07:03:20;6.13;;;4.47;;
830;SDS011;397;50.564;7.272;2023-04-24T07:05:47;4.93;;;4.43;;
830;SDS011;397;50.564;7.272;2023-04-24T07:08:15;7.20;;;5.07;;
830;SDS011;397;50.564;7.272;2023-04-24T07:10:43;5.67;;;4.80;;
830;SDS011;397;50.564;7.272;2023-04-24T07:13:11;6.80;;;4.80;;
830;SDS011;397;50.564;7.272;2023-04-24T07:15:39;5.40;;;4.70;;
830;SDS011;397;50.564;7.272;2023-04-24T07:18:07;5.60;;;4.10;;
830;SDS011;397;50.564;7.272;2023-04-24T07:20:35;5.23;;;3.83;;
830;SDS011;397;50.564;7.272;2023-04-24T07:23:02;4.10;;;3.50;;
830;SDS011;397;50.564;7.272;2023-04-24T07:25:30;4.70;;;3.17;;
830;SDS011;397;50.564;7.272;2023-04-24T07:27:57;5.20;;;3.37;;
830;SDS011;397;50.564;7.272;2023-04-24T07:30:25;4.47;;;3.43;;
830;SDS011;397;50.564;7.272;2023-04-24T07:32:54;4.57;;;4.17;;
830;SDS011;397;50.564;7.272;2023-04-24T07:35:22;4.00;;;3.60;;
830;SDS011;397;50.564;7.272;2023-04-24T07:37:52;3.73;;;3.20;;
830;SDS011;397;50.564;7.272;2023-04-24T07:40:20;5.77;;;3.23;;
830;SDS011;397;50.564;7.272;2023-04-24T07:42:48;3.70;;;3.03;;
830;SDS011;397;50.564;7.272;2023-04-24T07:45:16;3.70;;;2.53;;
830;SDS011;397;50.564;7.272;2023-04-24T07:47:44;3.10;;;2.40;;
830;SDS011;397;50.564;7.272;2023-04-24T07:50:12;3.30;;;2.80;;
830;SDS011;397;50.564;7.272;2023-04-24T07:52:39;3.77;;;2.23;;
830;SDS011;397;50.564;7.272;2023-04-24T07:55:07;2.27;;;1.60;;
830;SDS011;397;50.564;7.272;2023-04-24T07:57:34;7.77;;;3.10;;
830;SDS011;397;50.564;7.272;2023-04-24T08:00:08;3.90;;;2.10;;
830;SDS011;397;50.564;7.272;2023-04-24T08:02:32;3.17;;;2.00;;
830;SDS011;397;50.564;7.272;2023-04-24T08:04:59;2.67;;;1.97;;
830;SDS011;397;50.564;7.272;2023-04-24T08:07:28;2.87;;;1.97;;
830;SDS011;397;50.564;7.272;2023-04-24T08:09:56;4.17;;;1.60;;
830;SDS011;397;50.564;7.272;2023-04-24T08:12:25;2.90;;;1.63;;
830;SDS011;397;50.564;7.272;2023-04-24T08:14:52;2.70;;;1.77;;
830;SDS011;397;50.564;7.272;2023-04-24T08:17:20;2.77;;;2.00;;
830;SDS011;397;50.564;7.272;2023-04-24T08:19:47;2.70;;;2.10;;
830;SDS011;397;50.564;7.272;2023-04-24T08:22:17;2.50;;;1.40;;
830;SDS011;397;50.564;7.272;2023-04-24T08:24:44;2.33;;;1.60;;
830;SDS011;397;50.564;7.272;2023-04-24T08:27:12;3.30;;;1.80;;
830;SDS011;397;50.564;7.272;2023-04-24T08:29:40;3.07;;;1.80;;
830;SDS011;397;50.564;7.272;2023-04-24T08:32:07;2.97;;;1.73;;
830;SDS011;397;50.564;7.272;2023-04-24T08:34:35;2.70;;;1.87;;
830;SDS011;397;50.564;7.272;2023-04-24T08:37:02;2.77;;;1.67;;
830;SDS011;397;50.564;7.272;2023-04-24T08:39:30;3.03;;;1.83;;
830;SDS011;397;50.564;7.272;2023-04-24T08:41:58;2.10;;;1.30;;
830;SDS011;397;50.564;7.272;2023-04-24T08:44:29;2.13;;;1.43;;
830;SDS011;397;50.564;7.272;2023-04-24T08:46:58;2.23;;;1.13;;
830;SDS011;397;50.564;7.272;2023-04-24T08:49:28;4.10;;;1.47;;
830;SDS011;397;50.564;7.272;2023-04-24T08:51:56;2.97;;;1.47;;
830;SDS011;397;50.564;7.272;2023-04-24T08:54:25;2.57;;;1.17;;
830;SDS011;397;50.564;7.272;2023-04-24T08:56:56;2.17;;;0.60;;
830;SDS011;397;50.564;7.272;2023-04-24T08:59:27;2.30;;;0.97;;
830;SDS011;397;50.564;7.272;2023-04-24T09:01:55;1.80;;;0.70;;
830;SDS011;397;50.564;7.272;2023-04-24T09:04:24;1.70;;;0.63;;
830;SDS011;397;50.564;7.272;2023-04-24T09:06:54;2.10;;;0.80;;
830;SDS011;397;50.564;7.272;2023-04-24T09:09:23;2.33;;;1.00;;
830;SDS011;397;50.564;7.272;2023-04-24T09:11:51;1.53;;;0.60;;
830;SDS011;397;50.564;7.272;2023-04-24T09:14:21;1.67;;;0.73;;
830;SDS011;397;50.564;7.272;2023-04-24T09:16:50;1.67;;;0.67;;
830;SDS011;397;50.564;7.272;2023-04-24T09:19:17;1.87;;;1.00;;
830;SDS011;397;50.564;7.272;2023-04-24T09:21:47;2.43;;;0.90;;
830;SDS011;397;50.564;7.272;2023-04-24T09:24:15;1.70;;;0.60;;
830;SDS011;397;50.564;7.272;2023-04-24T09:26:46;3.00;;;0.90;;
830;SDS011;397;50.564;7.272;2023-04-24T09:29:15;2.10;;;0.97;;
830;SDS011;397;50.564;7.272;2023-04-24T09:31:44;1.60;;;0.60;;
830;SDS011;397;50.564;7.272;2023-04-24T09:34:12;2.37;;;0.87;;
830;SDS011;397;50.564;7.272;2023-04-24T09:36:41;2.60;;;1.20;;
830;SDS011;397;50.564;7.272;2023-04-24T09:39:10;2.03;;;0.80;;
830;SDS011;397;50.564;7.272;2023-04-24T09:41:44;2.23;;;1.60;;
830;SDS011;397;50.564;7.272;2023-04-24T09:44:25;3.90;;;2.60;;
830;SDS011;397;50.564;7.272;2023-04-24T09:46:55;4.63;;;3.33;;
830;SDS011;397;50.564;7.272;2023-04-24T09:49:22;4.63;;;3.03;;
830;SDS011;397;50.564;7.272;2023-04-24T09:51:50;6.83;;;3.30;;
830;SDS011;397;50.564;7.272;2023-04-24T09:54:20;3.20;;;2.43;;
830;SDS011;397;50.564;7.272;2023-04-24T09:56:49;4.17;;;2.90;;
830;SDS011;397;50.564;7.272;2023-04-24T09:59:18;7.33;;;4.70;;
830;SDS011;397;50.564;7.272;2023-04-24T10:01:46;6.17;;;4.33;;
830;SDS011;397;50.564;7.272;2023-04-24T10:04:19;4.63;;;4.13;;
830;SDS011;397;50.564;7.272;2023-04-24T10:06:50;4.77;;;3.97;;
830;SDS011;397;50.564;7.272;2023-04-24T10:09:19;2.20;;;1.60;;
830;SDS011;397;50.564;7.272;2023-04-24T10:11:53;2.10;;;1.40;;
830;SDS011;397;50.564;7.272;2023-04-24T10:14:26;2.73;;;1.40;;
830;SDS011;397;50.564;7.272;2023-04-24T10:16:53;1.90;;;1.00;;
830;SDS011;397;50.564;7.272;2023-04-24T10:19:22;2.13;;;0.97;;
830;SDS011;397;50.564;7.272;2023-04-24T10:21:52;1.80;;;0.97;;
830;SDS011;397;50.564;7.272;2023-04-24T10:24:21;1.90;;;1.00;;
830;SDS011;397;50.564;7.272;2023-04-24T10:26:48;1.87;;;1.00;;
830;SDS011;397;50.564;7.272;2023-04-24T10:29:17;2.27;;;0.90;;
830;SDS011;397;50.564;7.272;2023-04-24T10:31:47;2.00;;;1.10;;
830;SDS011;397;50.564;7.272;2023-04-24T10:34:15;1.77;;;0.87;;
830;SDS011;397;50.564;7.272;2023-04-24T10:36:51;2.00;;;1.30;;
830;SDS011;397;50.564;7.272;2023-04-24T10:39:19;2.43;;;1.47;;
830;SDS011;397;50.564;7.272;2023-04-24T10:41:48;2.20;;;1.33;;
830;SDS011;397;50.564;7.272;2023-04-24T10:44:16;2.20;;;1.43;;
830;SDS011;397;50.564;7.272;2023-04-24T10:46:45;2.23;;;1.43;;
830;SDS011;397;50.564;7.272;2023-04-24T10:49:16;2.70;;;1.73;;
830;SDS011;397;50.564;7.272;2023-04-24T10:51:50;3.50;;;2.03;;
830;SDS011;397;50.564;7.272;2023-04-24T11:00:10;2.87;;;2.00;;
830;SDS011;397;50.564;7.272;2023-04-24T11:02:48;3.00;;;2.37;;
830;SDS011;397;50.564;7.272;2023-04-24T11:05:16;6.73;;;3.10;;
830;SDS011;397;50.564;7.272;2023-04-24T11:10:44;5.23;;;3.20;;
830;SDS011;397;50.564;7.272;2023-04-24T11:13:16;4.50;;;3.07;;
830;SDS011;397;50.564;7.272;2023-04-24T11:15:45;4.43;;;3.50;;
830;SDS011;397;50.564;7.272;2023-04-24T11:18:39;3.70;;;2.73;;
830;SDS011;397;50.564;7.272;2023-04-24T11:21:10;5.83;;;3.27;;
830;SDS011;397;50.564;7.272;2023-04-24T11:23:39;3.80;;;3.40;;
830;SDS011;397;50.564;7.272;2023-04-24T11:26:16;3.90;;;3.03;;
830;SDS011;397;50.564;7.272;2023-04-24T11:28:46;5.40;;;4.23;;
830;SDS011;397;50.564;7.272;2023-04-24T11:34:08;4.97;;;3.67;;
830;SDS011;397;50.564;7.272;2023-04-24T11:36:38;6.80;;;4.07;;
830;SDS011;397;50.564;7.272;2023-04-24T11:39:06;5.53;;;3.50;;
830;SDS011;397;50.564;7.272;2023-04-24T11:41:34;4.57;;;4.10;;
830;SDS011;397;50.564;7.272;2023-04-24T11:44:02;5.57;;;4.50;;
830;SDS011;397;50.564;7.272;2023-04-24T11:46:31;6.50;;;4.50;;
830;SDS011;397;50.564;7.272;2023-04-24T11:48:59;5.90;;;4.87;;
830;SDS011;397;50.564;7.272;2023-04-24T11:51:27;8.00;;;4.30;;
830;SDS011;397;50.564;7.272;2023-04-24T11:53:55;4.67;;;3.70;;
830;SDS011;397;50.564;7.272;2023-04-24T11:56:23;7.20;;;4.33;;
830;SDS011;397;50.564;7.272;2023-04-24T11:58:52;4.60;;;3.83;;
830;SDS011;397;50.564;7.272;2023-04-24T12:01:20;6.60;;;3.57;;
830;SDS011;397;50.564;7.272;2023-04-24T12:03:49;7.13;;;3.57;;
830;SDS011;397;50.564;7.272;2023-04-24T12:06:19;3.80;;;2.57;;
830;SDS011;397;50.564;7.272;2023-04-24T12:08:47;3.80;;;2.90;;
830;SDS011;397;50.564;7.272;2023-04-24T12:11:15;4.80;;;2.70;;
830;SDS011;397;50.564;7.272;2023-04-24T12:13:44;3.00;;;2.57;;
830;SDS011;397;50.564;7.272;2023-04-24T12:16:12;4.20;;;3.13;;
830;SDS011;397;50.564;7.272;2023-04-24T12:18:43;4.83;;;3.20;;
830;SDS011;397;50.564;7.272;2023-04-24T12:21:18;3.53;;;2.77;;
830;SDS011;397;50.564;7.272;2023-04-24T12:23:46;4.03;;;3.10;;
830;SDS011;397;50.564;7.272;2023-04-24T12:26:17;3.50;;;2.67;;
830;SDS011;397;50.564;7.272;2023-04-24T12:28:50;4.13;;;3.57;;
830;SDS011;397;50.564;7.272;2023-04-24T12:31:15;6.80;;;4.27;;
830;SDS011;397;50.564;7.272;2023-04-24T12:33:43;6.33;;;4.70;;
830;SDS011;397;50.564;7.272;2023-04-24T12:36:11;6.57;;;5.10;;
830;SDS011;397;50.564;7.272;2023-04-24T12:38:39;6.37;;;4.93;;
830;SDS011;397;50.564;7.272;2023-04-24T12:41:11;7.37;;;5.53;;
830;SDS011;397;50.564;7.272;2023-04-24T12:43:50;6.53;;;5.27;;
830;SDS011;397;50.564;7.272;2023-04-24T12:46:18;6.90;;;5.40;;
830;SDS011;397;50.564;7.272;2023-04-24T12:48:46;8.73;;;6.20;;
830;SDS011;397;50.564;7.272;2023-04-24T12:51:13;6.30;;;4.90;;
830;SDS011;397;50.564;7.272;2023-04-24T12:53:41;6.37;;;4.77;;
830;SDS011;397;50.564;7.272;2023-04-24T12:56:08;6.33;;;5.50;;
830;SDS011;397;50.564;7.272;2023-04-24T12:58:36;8.80;;;5.43;;
830;SDS011;397;50.564;7.272;2023-04-24T13:01:03;7.37;;;6.50;;
830;SDS011;397;50.564;7.272;2023-04-24T13:03:31;6.60;;;5.50;;
830;SDS011;397;50.564;7.272;2023-04-24T13:05:58;9.47;;;6.20;;
830;SDS011;397;50.564;7.272;2023-04-24T13:08:26;11.20;;;5.70;;
830;SDS011;397;50.564;7.272;2023-04-24T13:10:53;7.53;;;5.90;;
830;SDS011;397;50.564;7.272;2023-04-24T13:13:21;7.93;;;6.80;;
830;SDS011;397;50.564;7.272;2023-04-24T13:15:48;8.10;;;6.53;;
830;SDS011;397;50.564;7.272;2023-04-24T13:18:16;6.90;;;5.77;;
830;SDS011;397;50.564;7.272;2023-04-24T13:20:43;10.00;;;5.73;;
830;SDS011;397;50.564;7.272;2023-04-24T13:23:13;8.00;;;4.93;;
830;SDS011;397;50.564;7.272;2023-04-24T13:25:41;11.40;;;6.73;;
830;SDS011;397;50.564;7.272;2023-04-24T13:28:08;6.27;;;5.03;;
830;SDS011;397;50.564;7.272;2023-04-24T13:30:36;7.30;;;5.40;;
830;SDS011;397;50.564;7.272;2023-04-24T13:33:04;11.40;;;5.07;;
830;SDS011;397;50.564;7.272;2023-04-24T13:35:32;6.93;;;4.63;;
830;SDS011;397;50.564;7.272;2023-04-24T13:37:59;7.73;;;5.10;;
830;SDS011;397;50.564;7.272;2023-04-24T13:40:28;9.13;;;5.30;;
830;SDS011;397;50.564;7.272;2023-04-24T13:42:56;5.20;;;4.40;;
830;SDS011;397;50.564;7.272;2023-04-24T13:45:23;5.57;;;5.03;;
830;SDS011;397;50.564;7.272;2023-04-24T13:47:52;10.03;;;5.50;;
830;SDS011;397;50.564;7.272;2023-04-24T13:50:20;6.43;;;5.10;;
830;SDS011;397;50.564;7.272;2023-04-24T13:52:48;6.03;;;5.00;;
830;SDS011;397;50.564;7.272;2023-04-24T13:55:15;4.93;;;4.47;;
830;SDS011;397;50.564;7.272;2023-04-24T13:57:43;5.03;;;4.23;;
830;SDS011;397;50.564;7.272;2023-04-24T14:00:10;5.47;;;4.83;;
830;SDS011;397;50.564;7.272;2023-04-24T14:02:39;7.43;;;5.53;;
830;SDS011;397;50.564;7.272;2023-04-24T14:05:06;8.73;;;6.13;;
830;SDS011;397;50.564;7.272;2023-04-24T14:07:36;6.90;;;6.10;;
830;SDS011;397;50.564;7.272;2023-04-24T14:10:03;8.03;;;5.00;;
830;SDS011;397;50.564;7.272;2023-04-24T14:12:31;8.70;;;5.17;;
830;SDS011;397;50.564;7.272;2023-04-24T14:14:59;8.03;;;6.17;;
830;SDS011;397;50.564;7.272;2023-04-24T14:17:27;7.60;;;5.43;;
830;SDS011;397;50.564;7.272;2023-04-24T14:19:54;8.53;;;5.67;;
830;SDS011;397;50.564;7.272;2023-04-24T14:22:22;8.20;;;5.57;;
830;SDS011;397;50.564;7.272;2023-04-24T14:24:50;7.47;;;5.00;;
830;SDS011;397;50.564;7.272;2023-04-24T14:27:17;7.67;;;5.40;;
830;SDS011;397;50.564;7.272;2023-04-24T14:29:45;10.20;;;5.90;;
830;SDS011;397;50.564;7.272;2023-04-24T14:32:12;8.13;;;5.70;;
830;SDS011;397;50.564;7.272;2023-04-24T14:34:40;6.37;;;4.50;;
830;SDS011;397;50.564;7.272;2023-04-24T14:37:08;9.70;;;5.87;;
830;SDS011;397;50.564;7.272;2023-04-24T14:39:36;9.83;;;6.43;;
830;SDS011;397;50.564;7.272;2023-04-24T14:42:03;7.53;;;6.23;;
830;SDS011;397;50.564;7.272;2023-04-24T14:44:31;6.43;;;5.80;;
830;SDS011;397;50.564;7.272;2023-04-24T14:46:58;7.80;;;5.77;;
830;SDS011;397;50.564;7.272;2023-04-24T14:49:26;5.60;;;5.10;;
830;SDS011;397;50.564;7.272;2023-04-24T14:51:53;7.20;;;5.33;;
830;SDS011;397;50.564;7.272;2023-04-24T14:54:21;5.43;;;4.57;;
830;SDS011;397;50.564;7.272;2023-04-24T14:56:49;9.40;;;5.33;;
830;SDS011;397;50.564;7.272;2023-04-24T14:59:16;5.47;;;4.90;;
830;SDS011;397;50.564;7.272;2023-04-24T15:01:44;9.13;;;5.40;;
830;SDS011;397;50.564;7.272;2023-04-24T15:04:11;6.80;;;6.00;;
830;SDS011;397;50.564;7.272;2023-04-24T15:06:39;7.10;;;5.93;;
830;SDS011;397;50.564;7.272;2023-04-24T15:09:06;5.50;;;5.00;;
830;SDS011;397;50.564;7.272;2023-04-24T15:11:34;7.37;;;6.30;;
830;SDS011;397;50.564;7.272;2023-04-24T15:14:01;7.07;;;5.93;;
830;SDS011;397;50.564;7.272;2023-04-24T15:16:29;7.30;;;5.40;;
830;SDS011;397;50.564;7.272;2023-04-24T15:18:57;8.97;;;6.10;;
830;SDS011;397;50.564;7.272;2023-04-24T15:21:25;11.50;;;7.03;;
830;SDS011;397;50.564;7.272;2023-04-24T15:23:53;6.70;;;5.77;;
830;SDS011;397;50.564;7.272;2023-04-24T15:26:21;5.63;;;5.03;;
830;SDS011;397;50.564;7.272;2023-04-24T15:28:49;8.10;;;5.23;;
830;SDS011;397;50.564;7.272;2023-04-24T15:31:17;9.57;;;5.40;;
830;SDS011;397;50.564;7.272;2023-04-24T15:33:46;8.77;;;6.67;;
830;SDS011;397;50.564;7.272;2023-04-24T15:36:15;8.50;;;5.90;;
830;SDS011;397;50.564;7.272;2023-04-24T15:38:43;6.53;;;5.03;;
830;SDS011;397;50.564;7.272;2023-04-24T15:41:11;5.90;;;5.30;;
830;SDS011;397;50.564;7.272;2023-04-24T15:43:39;5.97;;;4.80;;
830;SDS011;397;50.564;7.272;2023-04-24T15:46:07;6.03;;;5.40;;
830;SDS011;397;50.564;7.272;2023-04-24T15:48:34;7.80;;;5.50;;
830;SDS011;397;50.564;7.272;2023-04-24T15:51:03;6.90;;;4.90;;
830;SDS011;397;50.564;7.272;2023-04-24T15:53:31;12.27;;;5.67;;
830;SDS011;397;50.564;7.272;2023-04-24T15:55:58;7.73;;;6.20;;
830;SDS011;397;50.564;7.272;2023-04-24T15:58:26;8.33;;;5.73;;
830;SDS011;397;50.564;7.272;2023-04-24T16:00:53;7.03;;;5.60;;
830;SDS011;397;50.564;7.272;2023-04-24T16:03:21;8.40;;;4.87;;